createdAt,value
2023-03-20T00:00:04.320Z,0.40
2023-03-20T00:02:38.635Z,0.90
2023-03-20T00:05:19.145Z,0.40
2023-03-20T00:07:49.589Z,1.05
2023-03-20T00:10:20.400Z,1.20
2023-03-20T00:12:51.989Z,1.20
2023-03-20T00:15:27.506Z,0.50
2023-03-20T00:17:57.132Z,0.40
2023-03-20T00:20:31.181Z,0.65
2023-03-20T00:23:00.723Z,0.28
2023-03-20T00:25:29.807Z,0.50
2023-03-20T00:27:59.522Z,0.43
2023-03-20T00:30:31.416Z,0.50
2023-03-20T00:33:00.822Z,0.63
2023-03-20T00:35:33.697Z,1.02
2023-03-20T00:38:02.839Z,1.05
2023-03-20T00:40:33.907Z,0.80
2023-03-20T00:43:04.997Z,0.80
2023-03-20T00:45:37.685Z,0.10
2023-03-20T00:48:08.025Z,1.35
2023-03-20T00:50:39.168Z,1.23
2023-03-20T00:53:08.397Z,1.13
2023-03-20T00:55:38.059Z,0.50
2023-03-20T00:58:09.474Z,0.60
2023-03-20T01:00:41.559Z,0.75
2023-03-20T01:03:17.371Z,0.63
2023-03-20T01:05:52.553Z,0.90
2023-03-20T01:08:23.712Z,0.90
2023-03-20T01:10:55.701Z,1.27
2023-03-20T01:13:27.801Z,1.50
2023-03-20T01:15:59.091Z,1.25
2023-03-20T01:18:29.381Z,1.90
2023-03-20T01:21:00.627Z,1.38
2023-03-20T01:23:29.583Z,1.38
2023-03-20T01:25:59.299Z,2.15
2023-03-20T01:28:34.851Z,1.23
2023-03-20T01:31:05.108Z,1.00
2023-03-20T01:33:35.023Z,1.23
2023-03-20T01:36:06.073Z,1.08
2023-03-20T01:38:35.416Z,0.63
2023-03-20T01:41:08.806Z,1.23
2023-03-20T01:43:40.525Z,0.52
2023-03-20T01:46:20.510Z,1.30
2023-03-20T01:49:30.360Z,1.02
2023-03-20T01:52:06.088Z,0.77
2023-03-20T01:54:39.902Z,2.47
2023-03-20T01:57:18.336Z,3.25
2023-03-20T01:59:51.381Z,1.50
2023-03-20T02:02:25.038Z,0.60
2023-03-20T02:05:02.420Z,1.90
2023-03-20T02:07:36.032Z,1.75
2023-03-20T02:10:10.505Z,0.60
2023-03-20T02:12:50.281Z,0.55
2023-03-20T02:15:29.414Z,0.50
2023-03-20T02:18:16.537Z,0.95
2023-03-20T02:20:56.063Z,1.52
2023-03-20T02:24:16.793Z,1.13
2023-03-20T02:27:04.081Z,0.65
2023-03-20T02:30:26.022Z,0.28
2023-03-20T02:33:47.105Z,0.95
2023-03-20T02:36:56.925Z,1.27
2023-03-20T02:39:45.146Z,0.77
2023-03-20T02:42:24.268Z,2.17
2023-03-20T02:45:05.623Z,1.27
2023-03-20T02:47:43.441Z,1.07
2023-03-20T02:50:28.815Z,1.27
2023-03-20T02:53:12.393Z,1.48
2023-03-20T02:55:50.843Z,0.32
2023-03-20T02:58:26.209Z,0.65
2023-03-20T03:01:02.958Z,0.98
2023-03-20T03:03:40.484Z,0.52
2023-03-20T03:06:18.037Z,0.80
2023-03-20T03:08:51.556Z,0.55
2023-03-20T03:11:23.879Z,0.40
2023-03-20T03:13:57.674Z,1.23
2023-03-20T03:16:29.942Z,0.47
2023-03-20T03:19:07.038Z,0.50
2023-03-20T03:21:39.051Z,0.52
2023-03-20T03:24:26.809Z,1.13
2023-03-20T03:27:09.318Z,0.65
2023-03-20T03:29:41.028Z,0.95
2023-03-20T03:32:24.791Z,0.22
2023-03-20T03:37:30.264Z,0.30
2023-03-20T03:40:07.232Z,0.40
2023-03-20T03:42:41.734Z,0.75
2023-03-20T03:45:14.977Z,0.30
2023-03-20T03:47:47.775Z,0.50
2023-03-20T03:50:21.928Z,0.10
2023-03-20T03:52:53.544Z,0.85
2023-03-20T03:55:27.052Z,0.63
2023-03-20T03:58:12.482Z,1.05
2023-03-20T04:00:43.992Z,0.50
2023-03-20T04:03:14.200Z,0.50
2023-03-20T04:05:48.139Z,0.52
2023-03-20T04:08:17.712Z,1.05
2023-03-20T04:10:48.127Z,0.47
2023-03-20T04:13:18.854Z,0.30
2023-03-20T04:15:48.009Z,0.30
2023-03-20T04:18:19.688Z,0.63
2023-03-20T04:20:50.578Z,0.47
2023-03-20T04:23:19.676Z,3.80
2023-03-20T04:25:49.574Z,0.98
2023-03-20T04:28:19.918Z,1.35
2023-03-20T04:31:00.514Z,1.20
2023-03-20T04:33:48.347Z,1.48
2023-03-20T04:36:35.686Z,1.58
2023-03-20T04:39:07.654Z,1.33
2023-03-20T04:41:36.772Z,0.63
2023-03-20T04:44:07.442Z,2.15
2023-03-20T04:46:38.267Z,0.85
2023-03-20T04:49:16.334Z,1.10
2023-03-20T04:51:45.478Z,1.25
2023-03-20T04:54:16.569Z,0.75
2023-03-20T04:56:45.946Z,0.63
2023-03-20T04:59:20.664Z,1.75
2023-03-20T05:01:49.798Z,0.50
2023-03-20T05:04:19.059Z,1.13
2023-03-20T05:06:49.502Z,0.45
2023-03-20T05:09:21.310Z,1.23
2023-03-20T05:11:52.020Z,1.67
2023-03-20T05:14:55.577Z,0.90
2023-03-20T05:17:42.904Z,0.52
2023-03-20T05:20:30.356Z,1.38
2023-03-20T05:23:17.212Z,0.20
2023-03-20T05:26:07.683Z,1.27
2023-03-20T05:28:56.732Z,1.50
2023-03-20T05:31:40.176Z,1.95
2023-03-20T05:34:17.844Z,1.00
2023-03-20T05:37:09.317Z,1.45
2023-03-20T05:40:05.795Z,0.35
2023-03-20T05:42:44.527Z,0.73
2023-03-20T05:45:33.624Z,2.33
2023-03-20T05:48:16.327Z,1.58
2023-03-20T05:51:14.067Z,1.15
2023-03-20T05:53:57.022Z,0.88
2023-03-20T05:56:41.021Z,0.90
2023-03-20T05:59:23.758Z,1.20
2023-03-20T06:02:28.041Z,0.77
2023-03-20T06:05:10.559Z,0.82
2023-03-20T06:07:51.869Z,0.80
2023-03-20T06:10:22.504Z,1.38
2023-03-20T06:12:53.033Z,0.77
2023-03-20T06:15:26.958Z,0.63
2023-03-20T06:18:02.222Z,1.25
2023-03-20T06:20:33.124Z,1.20
2023-03-20T06:23:05.623Z,0.95
2023-03-20T06:25:35.329Z,1.95
2023-03-20T06:28:04.994Z,1.15
2023-03-20T06:30:34.252Z,2.67
2023-03-20T06:33:03.804Z,2.97
2023-03-20T06:35:42.703Z,1.67
2023-03-20T06:38:12.331Z,1.80
2023-03-20T06:40:41.974Z,1.75
2023-03-20T06:43:12.746Z,1.60
2023-03-20T06:45:49.558Z,2.60
2023-03-20T06:48:23.193Z,2.38
2023-03-20T06:50:54.929Z,1.65
2023-03-20T06:53:28.560Z,1.30
2023-03-20T06:56:07.320Z,0.90
2023-03-20T06:58:36.512Z,2.80
2023-03-20T07:01:11.134Z,3.22
2023-03-20T07:03:40.317Z,3.63
2023-03-20T07:06:13.748Z,4.22
2023-03-20T07:08:43.546Z,2.00
2023-03-20T07:11:13.353Z,1.98
2023-03-20T07:13:44.380Z,1.75
2023-03-20T07:16:24.207Z,2.63
2023-03-20T07:18:54.068Z,2.63
2023-03-20T07:21:25.308Z,2.35
2023-03-20T07:23:55.126Z,1.80
2023-03-20T07:26:24.196Z,2.33
2023-03-20T07:28:55.556Z,2.28
2023-03-20T07:31:31.406Z,2.70
2023-03-20T07:34:29.846Z,1.45
2023-03-20T07:37:02.525Z,1.55
2023-03-20T07:39:33.899Z,3.50
2023-03-20T07:42:29.897Z,1.33
2023-03-20T07:45:10.942Z,1.58
2023-03-20T07:47:40.075Z,2.17
2023-03-20T07:50:09.691Z,1.00
2023-03-20T07:52:40.542Z,0.75
2023-03-20T07:55:10.202Z,1.92
2023-03-20T07:57:39.450Z,1.92
2023-03-20T08:00:09.957Z,1.65
2023-03-20T08:02:41.690Z,0.75
2023-03-20T08:05:11.165Z,1.20
2023-03-20T08:07:41.820Z,0.93
2023-03-20T08:10:12.102Z,1.48
2023-03-20T08:12:42.240Z,0.80
2023-03-20T08:15:12.233Z,1.35
2023-03-20T08:17:44.260Z,2.38
2023-03-20T08:20:14.584Z,1.25
2023-03-20T08:22:46.627Z,0.75
2023-03-20T08:25:16.515Z,1.23
2023-03-20T08:27:45.750Z,1.73
2023-03-20T08:30:16.228Z,1.45
2023-03-20T08:32:45.343Z,2.45
2023-03-20T08:35:31.455Z,0.73
2023-03-20T08:38:04.216Z,1.20
2023-03-20T08:40:33.308Z,2.47
2023-03-20T08:43:02.399Z,0.60
2023-03-20T08:45:31.528Z,1.00
2023-03-20T08:48:01.130Z,1.45
2023-03-20T08:50:30.287Z,2.45
2023-03-20T08:52:59.388Z,0.70
2023-03-20T08:55:29.839Z,1.60
2023-03-20T08:58:00.111Z,1.67
2023-03-20T09:00:29.262Z,1.13
2023-03-20T09:02:58.701Z,1.77
2023-03-20T09:05:27.766Z,1.13
2023-03-20T09:07:56.804Z,1.17
2023-03-20T09:10:25.863Z,0.60
2023-03-20T09:12:56.506Z,1.38
2023-03-20T09:15:25.624Z,0.68
2023-03-20T09:17:55.481Z,1.58
2023-03-20T09:20:24.502Z,1.58
2023-03-20T09:22:53.539Z,0.45
2023-03-20T09:25:22.526Z,1.20
2023-03-20T09:27:55.464Z,2.05
2023-03-20T09:30:26.574Z,1.85
2023-03-20T09:32:56.145Z,1.05
2023-03-20T09:35:26.098Z,0.73
2023-03-20T09:37:55.496Z,1.02
2023-03-20T09:40:28.595Z,1.42
2023-03-20T09:43:09.076Z,0.88
2023-03-20T09:45:53.277Z,0.63
2023-03-20T09:48:30.186Z,1.45
2023-03-20T09:51:08.894Z,0.77
2023-03-20T09:53:42.054Z,1.63
2023-03-20T09:56:17.551Z,0.85
2023-03-20T09:58:55.020Z,1.00
2023-03-20T10:01:31.105Z,0.60
2023-03-20T10:04:06.049Z,1.13
2023-03-20T10:06:35.633Z,0.70
2023-03-20T10:09:11.680Z,1.13
2023-03-20T10:12:07.035Z,1.35
2023-03-20T10:14:47.314Z,0.88
2023-03-20T10:17:29.438Z,1.05
2023-03-20T10:20:11.687Z,0.77
2023-03-20T10:22:46.986Z,1.23
2023-03-20T10:25:26.051Z,0.88
2023-03-20T10:28:00.540Z,1.10
2023-03-20T10:30:47.684Z,0.88
2023-03-20T10:33:40.662Z,0.63
2023-03-20T10:36:30.572Z,0.77
2023-03-20T10:39:04.777Z,0.75
2023-03-20T10:41:37.664Z,0.40
2023-03-20T10:44:08.497Z,0.98
2023-03-20T10:46:44.967Z,0.68
2023-03-20T10:49:21.451Z,0.35
2023-03-20T10:51:54.845Z,0.82
2023-03-20T10:54:28.571Z,1.67
2023-03-20T10:57:00.728Z,0.93
2023-03-20T10:59:35.574Z,0.85
2023-03-20T11:02:10.147Z,0.82
2023-03-20T11:04:41.466Z,0.73
2023-03-20T11:07:21.004Z,0.75
2023-03-20T11:10:10.717Z,0.95
2023-03-20T11:12:42.121Z,0.50
2023-03-20T11:15:26.026Z,2.10
2023-03-20T11:17:57.255Z,4.20
2023-03-20T11:20:35.563Z,0.98
2023-03-20T11:23:06.802Z,0.70
2023-03-20T11:25:43.417Z,1.17
2023-03-20T11:28:27.014Z,0.60
2023-03-20T11:31:04.932Z,0.47
2023-03-20T11:33:39.253Z,0.80
2023-03-20T11:36:28.033Z,0.82
2023-03-20T11:39:06.919Z,0.70
2023-03-20T11:41:36.402Z,1.52
2023-03-20T11:44:06.669Z,0.70
2023-03-20T11:46:36.477Z,0.85
2023-03-20T11:49:22.836Z,1.08
2023-03-20T11:51:54.062Z,0.77
2023-03-20T11:54:26.556Z,0.25
2023-03-20T11:56:57.464Z,0.38
2023-03-20T11:59:32.354Z,1.13
2023-03-20T12:02:03.935Z,0.70
2023-03-20T12:04:34.911Z,1.02
2023-03-20T12:07:13.512Z,0.50
2023-03-20T12:09:47.689Z,0.57
2023-03-20T12:12:26.441Z,0.38
2023-03-20T12:15:05.685Z,0.50
2023-03-20T12:17:45.746Z,0.82
2023-03-20T12:20:29.547Z,0.63
2023-03-20T12:23:08.311Z,0.75
2023-03-20T12:25:42.328Z,0.82
2023-03-20T12:28:20.410Z,0.73
2023-03-20T12:31:01.737Z,0.52
2023-03-20T12:33:43.566Z,0.30
2023-03-20T12:36:16.863Z,1.10
2023-03-20T12:38:48.240Z,1.13
2023-03-20T12:41:25.614Z,0.80
2023-03-20T12:44:30.472Z,0.90
2023-03-20T12:47:14.006Z,1.38
2023-03-20T12:49:52.372Z,0.77
2023-03-20T12:52:30.980Z,0.68
2023-03-20T12:55:13.523Z,0.70
2023-03-20T12:57:53.257Z,0.47
2023-03-20T13:00:29.939Z,0.95
2023-03-20T13:03:08.799Z,0.70
2023-03-20T13:05:47.631Z,1.27
2023-03-20T13:08:40.453Z,0.60
2023-03-20T13:11:22.477Z,0.82
2023-03-20T13:13:56.860Z,0.75
2023-03-20T13:16:40.678Z,0.47
2023-03-20T13:19:16.262Z,1.02
2023-03-20T13:21:56.908Z,0.50
2023-03-20T13:24:37.252Z,0.65
2023-03-20T13:27:22.427Z,0.25
2023-03-20T13:29:57.503Z,0.80
2023-03-20T13:32:42.886Z,0.65
2023-03-20T13:35:36.146Z,1.00
2023-03-20T13:38:17.229Z,0.85
2023-03-20T13:40:49.555Z,0.50
2023-03-20T13:43:33.362Z,0.60
2023-03-20T13:46:09.003Z,0.85
2023-03-20T13:48:39.507Z,0.80
2023-03-20T13:51:20.213Z,0.90
2023-03-20T13:54:03.246Z,1.65
2023-03-20T13:56:42.916Z,0.35
2023-03-20T13:59:37.496Z,0.70
2023-03-20T14:02:25.807Z,0.65
2023-03-20T14:05:06.217Z,1.00
2023-03-20T14:07:37.615Z,0.80
2023-03-20T14:10:39.677Z,0.82
2023-03-20T14:13:15.923Z,1.43
2023-03-20T14:15:54.605Z,1.20
2023-03-20T14:18:26.704Z,0.85
2023-03-20T14:20:58.686Z,1.33
2023-03-20T14:23:36.676Z,1.30
2023-03-20T14:26:20.692Z,0.35
2023-03-20T14:29:00.359Z,0.40
2023-03-20T14:31:34.523Z,1.10
2023-03-20T14:34:19.387Z,1.00
2023-03-20T14:36:54.583Z,0.70
2023-03-20T14:39:37.854Z,1.00
2023-03-20T14:45:01.761Z,0.93
2023-03-20T14:47:41.314Z,1.40
2023-03-20T14:50:16.672Z,0.70
2023-03-20T14:52:57.263Z,0.77
2023-03-20T14:55:35.671Z,1.00
2023-03-20T14:58:07.643Z,0.70
2023-03-20T15:00:47.092Z,0.52
2023-03-20T15:03:19.182Z,1.33
2023-03-20T15:05:49.438Z,2.38
2023-03-20T15:08:25.798Z,2.80
2023-03-20T15:10:58.402Z,2.97
2023-03-20T15:13:28.713Z,1.98
2023-03-20T15:16:00.271Z,2.35
2023-03-20T15:18:31.077Z,4.85
2023-03-20T15:21:00.262Z,3.97
2023-03-20T15:23:29.687Z,2.00
2023-03-20T15:26:02.552Z,1.08
2023-03-20T15:28:33.136Z,0.50
2023-03-20T15:31:02.954Z,0.90
2023-03-20T15:33:36.838Z,2.28
2023-03-20T15:36:11.341Z,1.38
2023-03-20T15:38:41.154Z,2.42
2023-03-20T15:41:26.482Z,1.90
2023-03-20T15:43:55.935Z,1.33
2023-03-20T15:46:28.184Z,0.85
2023-03-20T15:49:00.568Z,0.80
2023-03-20T15:51:30.086Z,1.20
2023-03-20T15:53:59.384Z,0.82
2023-03-20T15:56:29.292Z,1.92
2023-03-20T15:58:59.125Z,2.38
2023-03-20T16:01:33.065Z,1.70
2023-03-20T16:04:03.838Z,1.35
2023-03-20T16:06:32.989Z,1.77
2023-03-20T16:09:04.103Z,1.73
2023-03-20T16:11:39.395Z,3.20
2023-03-20T16:14:14.074Z,5.93
2023-03-20T16:16:43.613Z,8.50
2023-03-20T16:19:16.563Z,6.35
2023-03-20T16:21:51.908Z,5.28
2023-03-20T16:24:25.999Z,7.68
2023-03-20T16:26:55.687Z,5.18
2023-03-20T16:29:28.922Z,5.68
2023-03-20T16:32:01.125Z,6.03
2023-03-20T16:34:38.083Z,7.50
2023-03-20T16:37:10.988Z,5.95
2023-03-20T16:39:40.366Z,5.30
2023-03-20T16:42:25.098Z,4.82
2023-03-20T16:44:57.418Z,4.07
2023-03-20T16:47:36.382Z,3.30
2023-03-20T16:50:14.313Z,6.28
2023-03-20T16:52:48.211Z,5.57
2023-03-20T16:55:23.079Z,5.90
2023-03-20T16:57:56.218Z,8.98
2023-03-20T17:03:15.372Z,7.05
2023-03-20T17:05:50.874Z,4.75
2023-03-20T17:08:28.817Z,6.78
2023-03-20T17:11:00.851Z,12.35
2023-03-20T17:13:30.140Z,8.77
2023-03-20T17:16:00.112Z,7.75
2023-03-20T17:18:31.300Z,5.22
2023-03-20T17:21:02.025Z,3.95
2023-03-20T17:23:36.750Z,4.32
2023-03-20T17:26:07.822Z,3.55
2023-03-20T17:28:38.341Z,3.08
2023-03-20T17:31:08.329Z,3.58
2023-03-20T17:33:37.823Z,4.25
2023-03-20T17:36:17.599Z,4.80
2023-03-20T17:38:46.976Z,4.55
2023-03-20T17:41:18.163Z,5.47
2023-03-20T17:43:47.952Z,4.88
2023-03-20T17:46:20.760Z,5.82
2023-03-20T17:48:51.667Z,5.13
2023-03-20T17:51:23.457Z,4.40
2023-03-20T17:53:55.652Z,5.68
2023-03-20T17:56:29.398Z,3.35
2023-03-20T17:58:58.930Z,6.53
2023-03-20T18:01:32.714Z,8.57
2023-03-20T18:04:02.263Z,7.60
2023-03-20T18:06:34.862Z,7.50
2023-03-20T18:09:06.043Z,5.47
2023-03-20T18:11:35.355Z,7.78
2023-03-20T18:14:06.982Z,7.38
2023-03-20T18:16:36.474Z,8.65
2023-03-20T18:19:05.887Z,7.10
2023-03-20T18:21:37.075Z,7.38
2023-03-20T18:24:07.871Z,8.57
2023-03-20T18:26:37.717Z,8.15
2023-03-20T18:29:07.744Z,7.07
2023-03-20T18:31:37.352Z,10.40
2023-03-20T18:34:07.387Z,9.60
2023-03-20T18:36:38.137Z,10.18
2023-03-20T18:39:07.699Z,5.55
2023-03-20T18:41:37.027Z,6.07
2023-03-20T18:44:06.418Z,7.75
2023-03-20T18:46:35.674Z,2.25
2023-03-20T18:49:05.684Z,4.88
2023-03-20T18:51:35.281Z,2.58
2023-03-20T18:54:06.009Z,2.33
2023-03-20T18:56:37.266Z,2.38
2023-03-20T18:59:08.760Z,3.03
2023-03-20T19:01:38.176Z,2.83
2023-03-20T19:04:07.582Z,3.08
2023-03-20T19:06:36.857Z,3.40
2023-03-20T19:09:07.856Z,3.55
2023-03-20T19:11:36.918Z,4.35
2023-03-20T19:14:07.266Z,6.50
2023-03-20T19:16:38.342Z,3.95
2023-03-20T19:19:09.770Z,10.30
2023-03-20T19:21:38.980Z,9.57
2023-03-20T19:24:10.854Z,8.88
2023-03-20T19:26:40.835Z,5.47
2023-03-20T19:29:14.181Z,7.15
2023-03-20T19:31:43.379Z,4.72
2023-03-20T19:34:38.937Z,5.10
2023-03-20T19:37:01.711Z,4.15
2023-03-20T19:39:32.205Z,2.92
2023-03-20T19:42:29.336Z,3.22
2023-03-20T19:44:51.240Z,2.72
2023-03-20T19:47:20.857Z,3.85
2023-03-20T19:49:50.148Z,2.17
2023-03-20T19:52:28.826Z,2.40
2023-03-20T19:55:03.014Z,5.45
2023-03-20T19:57:32.801Z,4.63
2023-03-20T20:00:50.588Z,5.18
2023-03-20T20:02:51.190Z,5.20
2023-03-20T20:05:24.068Z,6.70
2023-03-20T20:08:22.580Z,6.15
2023-03-20T20:10:45.873Z,4.93
2023-03-20T20:13:19.220Z,5.37
2023-03-20T20:15:50.037Z,4.45
2023-03-20T20:18:20.550Z,5.32
2023-03-20T20:22:00.030Z,7.15
2023-03-20T20:23:39.949Z,6.45
2023-03-20T20:26:10.754Z,6.22
2023-03-20T20:28:43.486Z,6.45
2023-03-20T20:31:12.527Z,5.38
2023-03-20T20:33:42.721Z,3.20
2023-03-20T20:37:18.323Z,3.30
2023-03-20T20:39:02.995Z,3.10
2023-03-20T20:41:33.483Z,2.63
2023-03-20T20:44:15.668Z,2.45
2023-03-20T20:46:45.827Z,2.00
2023-03-20T20:49:19.551Z,3.25
2023-03-20T20:51:49.948Z,2.53
2023-03-20T20:54:19.143Z,2.22
2023-03-20T20:56:49.553Z,2.67
2023-03-20T20:59:18.577Z,4.03
2023-03-20T21:01:48.028Z,2.75
2023-03-20T21:04:17.344Z,1.73
2023-03-20T21:09:35.787Z,2.03
2023-03-20T21:12:08.256Z,5.78
2023-03-20T21:14:37.452Z,5.05
2023-03-20T21:17:07.191Z,3.78
2023-03-20T21:19:37.795Z,1.98
2023-03-20T21:22:08.313Z,3.50
2023-03-20T21:24:38.170Z,1.23
2023-03-20T21:27:11.165Z,1.00
2023-03-20T21:29:44.517Z,1.50
2023-03-20T21:32:15.393Z,2.35
2023-03-20T21:34:44.580Z,2.70
2023-03-20T21:38:13.199Z,4.13
2023-03-20T21:40:10.248Z,2.53
2023-03-20T21:42:40.720Z,3.78
2023-03-20T21:46:10.834Z,2.63
2023-03-20T21:48:37.855Z,1.98
2023-03-20T21:51:28.300Z,2.80
2023-03-20T21:54:46.103Z,3.85
2023-03-20T21:57:09.586Z,3.05
2023-03-20T21:59:50.956Z,2.33
2023-03-20T22:02:20.224Z,2.13
2023-03-20T22:05:52.866Z,3.00
2023-03-20T22:08:49.594Z,1.48
2023-03-20T22:17:17.596Z,2.75
2023-03-20T22:25:25.872Z,0.98
2023-03-20T22:28:13.027Z,1.77
2023-03-20T22:31:16.245Z,2.05
2023-03-20T22:47:20.134Z,1.73
2023-03-20T22:49:50.729Z,1.98
2023-03-20T22:52:29.462Z,1.40
2023-03-20T22:55:04.056Z,1.33
2023-03-20T22:57:42.394Z,2.33
2023-03-20T23:00:17.636Z,3.20
2023-03-20T23:02:47.697Z,1.88
2023-03-20T23:05:38.007Z,2.17
2023-03-20T23:08:26.029Z,1.63
2023-03-20T23:10:56.447Z,2.13
2023-03-20T23:13:25.447Z,2.25
2023-03-20T23:15:55.091Z,3.20
2023-03-20T23:18:24.229Z,4.15
2023-03-20T23:20:58.937Z,3.22
2023-03-20T23:23:28.958Z,2.47
2023-03-20T23:26:05.300Z,1.98
2023-03-20T23:28:34.480Z,1.15
2023-03-20T23:31:10.748Z,1.10
2023-03-20T23:33:41.661Z,0.75
2023-03-20T23:36:25.033Z,0.55
2023-03-20T23:39:02.666Z,1.25
2023-03-20T23:41:58.015Z,1.30
2023-03-20T23:44:21.229Z,0.93
2023-03-20T23:46:50.809Z,0.82
2023-03-20T23:49:20.310Z,0.77
2023-03-20T23:51:50.882Z,0.20
2023-03-20T23:54:20.986Z,1.33
2023-03-20T23:56:49.989Z,1.38
2023-03-20T23:59:21.955Z,1.20
